KTYR

Tyler Pounds Regional Airport

Tyler, Texas, USA
KTYR 210553Z 2106/2206 19008KT P6SM SCT300 FM211500 24011KT P6SM SCT250 FM220000 20008KT P6SM SCT250
Issued Valid From Valid To
Jul-21 @ 05:53 UTC
(4 hours ago)
Jul-21 @ 06:00 UTC
(4 hours ago)
Jul-22 @ 06:00 UTC
(in 20 hours)
Jul-21 @ 06:00 to Jul-21 @ 15:00
KTYR 210553Z 2106/2206 19008KT P6SM SCT300
Wind Visibility Clouds
190° at 8 knots Greater than 6 miles
  • Scattered at 30,000' AGL
From Jul-21 @ 15:00 to Jul-22 @ 00:00
FM211500 24011KT P6SM SCT250
Wind Visibility Clouds
240° at 11 knots Greater than 6 miles
  • Scattered at 25,000' AGL
From Jul-22 @ 00:00 to Jul-22 @ 06:00
FM220000 20008KT P6SM SCT250
Wind Visibility Clouds
200° at 8 knots Greater than 6 miles
  • Scattered at 25,000' AGL
KTYR 210553Z 2106/2206 19008KT P6SM SCT300 FM211500 24011KT P6SM SCT250 FM220000 20008KT P6SM SCT250
Issued Jul-21 @ 05:53 UTC
(4 hours ago)
Valid From Jul-21 @ 06:00 UTC
(4 hours ago)
Valid To Jul-22 @ 06:00 UTC
(in 20 hours)
Jul-21 @ 06:00 - Jul-21 @ 15:00
Wind Visibility
190° at 8 knots Greater than 6 miles
Clouds
  • Scattered at 30,000' AGL
From Jul-21 @ 15:00 - Jul-22 @ 00:00
Wind Visibility
240° at 11 knots Greater than 6 miles
Clouds
  • Scattered at 25,000' AGL
From Jul-22 @ 00:00 - Jul-22 @ 06:00
Wind Visibility
200° at 8 knots Greater than 6 miles
Clouds
  • Scattered at 25,000' AGL